Time;durP1;ratioP1;P1;durP2;ratioP2;P2;SDS_P1;SDS_P2;PMS_P1;PMS_P2;Temp;Humidity;BMP_temperature;BMP_pressure;BME280_temperature;BME280_humidity;BME280_pressure;Samples;Min_cycle;Max_cycle;Signal;HPM_P1;HPM_P2
2023/04/02 00:04:20;;;;;;;10.60;6.25;;;;;;;;;;12819312;19;20315;-68
2023/04/02 00:09:40;;;;;;;8.93;5.97;;;;;;;;;;12822914;19;20469;-67
2023/04/02 00:14:38;;;;;;;10.98;6.68;;;;;;;;;;12819991;19;20307;-67
2023/04/02 00:19:13;;;;;;;12.55;7.30;;;;;;;;;;12817355;19;20390;-68
2023/04/02 00:24:04;;;;;;;14.20;8.45;;;;;;;;;;12821065;19;20050;-67
2023/04/02 00:28:43;;;;;;;12.07;6.65;;;;;;;;;;12818487;19;20851;-67
2023/04/02 00:33:33;;;;;;;10.20;5.63;;;;;;;;;;12819050;19;20452;-67
2023/04/02 00:38:14;;;;;;;10.02;5.43;;;;;;;;;;12814356;19;20766;-67
2023/04/02 00:42:58;;;;;;;11.98;5.88;;;;;;;;;;12814173;19;20307;-67
2023/04/02 00:54:01;;;;;;;10.70;5.30;;;;;;;;;;12813045;19;20585;-67
2023/04/02 00:58:46;;;;;;;7.53;4.70;;;;;;;;;;12815646;19;20420;-67
2023/04/02 01:03:37;;;;;;;6.82;4.55;;;;;;;;;;12819944;19;20336;-67
2023/04/02 01:13:16;;;;;;;7.25;4.63;;;;;;;;;;12814895;19;20513;-67
2023/04/02 01:18:45;;;;;;;12.30;5.32;;;;;;;;;;12817921;19;20326;-67
2023/04/02 01:30:02;;;;;;;11.02;6.70;;;;;;;;;;12815415;19;20500;-67
2023/04/02 01:46:07;;;;;;;6.13;4.13;;;;;;;;;;12820450;19;20587;-67
2023/04/02 01:50:54;;;;;;;46.38;15.00;;;;;;;;;;12822599;19;20337;-67
2023/04/02 01:55:45;;;;;;;13.25;5.85;;;;;;;;;;12830018;19;20534;-66
2023/04/02 02:01:05;;;;;;;18.40;7.25;;;;;;;;;;12827127;19;20356;-67
2023/04/02 02:06:39;;;;;;;9.10;5.32;;;;;;;;;;12820374;19;20509;-67
2023/04/02 02:11:41;;;;;;;9.77;4.68;;;;;;;;;;12818670;19;20345;-67
2023/04/02 02:16:11;;;;;;;5.65;4.25;;;;;;;;;;12819215;19;20350;-66
2023/04/02 02:20:38;;;;;;;11.35;5.93;;;;;;;;;;12821781;19;20465;-66
2023/04/02 02:25:42;;;;;;;15.90;6.45;;;;;;;;;;12819522;19;20007;-67
2023/04/02 02:30:35;;;;;;;15.15;6.57;;;;;;;;;;12820516;19;20534;-67
2023/04/02 02:35:41;;;;;;;7.20;4.80;;;;;;;;;;12823133;19;20445;-67
2023/04/02 02:46:01;;;;;;;8.88;5.60;;;;;;;;;;12819157;19;20429;-67
2023/04/02 02:50:43;;;;;;;8.85;5.70;;;;;;;;;;12818639;19;20411;-67
2023/04/02 02:55:47;;;;;;;;;;;;;;;;;;12819687;19;20017;-67
2023/04/02 03:01:11;;;;;;;10.63;6.20;;;;;;;;;;12815515;19;20238;-67
2023/04/02 03:05:55;;;;;;;7.43;5.45;;;;;;;;;;12816809;19;20750;-67
2023/04/02 03:18:01;;;;;;;15.77;7.50;;;;;;;;;;12721168;19;2005118;-67
2023/04/02 03:22:50;;;;;;;23.42;8.15;;;;;;;;;;12824802;19;20414;-67
2023/04/02 03:27:42;;;;;;;8.65;5.45;;;;;;;;;;12823256;19;20441;-67
2023/04/02 03:32:54;;;;;;;9.60;6.03;;;;;;;;;;12821358;19;20431;-67
2023/04/02 03:37:51;;;;;;;20.67;10.40;;;;;;;;;;12822016;19;20041;-67
2023/04/02 03:42:49;;;;;;;14.35;6.70;;;;;;;;;;12821306;19;20359;-67
2023/04/02 03:59:40;;;;;;;7.38;5.07;;;;;;;;;;12819590;19;20446;-67
2023/04/02 04:05:03;;;;;;;10.68;6.90;;;;;;;;;;12822262;19;20311;-67
2023/04/02 04:10:57;;;;;;;10.02;6.38;;;;;;;;;;12813089;19;20671;-67
2023/04/02 04:16:38;;;;;;;10.93;6.30;;;;;;;;;;12814155;19;20434;-67
2023/04/02 04:22:07;;;;;;;12.57;6.85;;;;;;;;;;12813439;19;20356;-68
2023/04/02 04:28:04;;;;;;;14.02;7.63;;;;;;;;;;12812891;19;20408;-67
2023/04/02 04:33:42;;;;;;;11.73;7.55;;;;;;;;;;12810466;19;20343;-67
2023/04/02 04:38:39;;;;;;;13.98;8.15;;;;;;;;;;12812671;19;20292;-67
2023/04/02 04:49:43;;;;;;;17.60;8.07;;;;;;;;;;12809571;19;20507;-67
2023/04/02 04:54:15;;;;;;;12.00;7.40;;;;;;;;;;12810000;19;20394;-67
2023/04/02 05:05:38;;;;;;;13.52;7.90;;;;;;;;;;12712236;19;2005992;-67
2023/04/02 05:10:52;;;;;;;12.52;7.35;;;;;;;;;;12821289;19;20013;-67
2023/04/02 05:16:36;;;;;;;6.97;5.22;;;;;;;;;;12824157;19;20553;-67
2023/04/02 05:23:00;;;;;;;4.80;2.92;;;;;;;;;;12721044;19;2005486;-67
2023/04/02 05:28:12;;;;;;;3.22;2.08;;;;;;;;;;12824293;19;20288;-67
2023/04/02 05:32:59;;;;;;;3.92;2.20;;;;;;;;;;12823457;19;20478;-67
2023/04/02 05:38:40;;;;;;;3.30;2.45;;;;;;;;;;12822059;19;20306;-68
2023/04/02 05:43:47;;;;;;;2.75;1.85;;;;;;;;;;12821357;19;20095;-67
2023/04/02 05:48:42;;;;;;;3.08;1.75;;;;;;;;;;12820705;19;20461;-67
2023/04/02 05:53:16;;;;;;;2.08;1.70;;;;;;;;;;12824794;19;20777;-67
2023/04/02 05:59:18;;;;;;;3.58;2.00;;;;;;;;;;12818441;19;20319;-67
2023/04/02 06:04:35;;;;;;;2.40;1.55;;;;;;;;;;12812745;19;20430;-68
2023/04/02 06:10:07;;;;;;;2.03;1.30;;;;;;;;;;12827647;19;20426;-67
2023/04/02 06:20:41;;;;;;;2.60;1.50;;;;;;;;;;12818540;19;20400;-68
2023/04/02 06:25:54;;;;;;;2.78;1.73;;;;;;;;;;12819548;19;20002;-67
2023/04/02 06:37:49;;;;;;;2.28;1.55;;;;;;;;;;12818932;19;20348;-67
2023/04/02 06:42:43;;;;;;;3.80;2.10;;;;;;;;;;12819382;19;20323;-67
2023/04/02 06:47:43;;;;;;;3.25;1.63;;;;;;;;;;12819709;19;20010;-66
2023/04/02 06:53:10;;;;;;;20.27;9.85;;;;;;;;;;12823060;19;20383;-67
2023/04/02 06:58:45;;;;;;;3.60;2.63;;;;;;;;;;12817502;19;20464;-67
2023/04/02 07:03:35;;;;;;;1.80;1.40;;;;;;;;;;12820810;19;20117;-67
2023/04/02 07:14:18;;;;;;;4.13;1.60;;;;;;;;;;12713515;19;2005381;-67
2023/04/02 07:19:03;;;;;;;6.70;2.58;;;;;;;;;;12815824;19;20845;-67
2023/04/02 07:29:48;;;;;;;15.73;5.25;;;;;;;;;;12812038;19;20296;-67
2023/04/02 07:34:50;;;;;;;1.00;0.85;;;;;;;;;;12822475;19;20007;-67
2023/04/02 07:39:37;;;;;;;;;;;;;;;;;;12823189;19;20475;-67
2023/04/02 07:44:09;;;;;;;1.83;1.05;;;;;;;;;;12824163;19;20271;-66
2023/04/02 07:54:03;;;;;;;3.40;1.88;;;;;;;;;;12821622;19;20489;-66
2023/04/02 08:04:37;;;;;;;4.60;2.38;;;;;;;;;;12818372;19;20238;-66
2023/04/02 08:09:09;;;;;;;3.20;1.40;;;;;;;;;;12820648;19;20478;-66
2023/04/02 08:13:40;;;;;;;1.42;1.08;;;;;;;;;;12820260;19;20021;-67
2023/04/02 08:18:40;;;;;;;2.58;1.10;;;;;;;;;;12820482;19;20315;-67
2023/04/02 08:23:48;;;;;;;5.53;1.50;;;;;;;;;;12814075;19;20437;-67
2023/04/02 08:28:42;;;;;;;6.78;3.67;;;;;;;;;;12813779;19;20438;-67
2023/04/02 08:40:00;;;;;;;3.75;1.80;;;;;;;;;;12817899;19;20792;-67
2023/04/02 08:45:39;;;;;;;2.50;1.52;;;;;;;;;;12819812;19;20441;-67
2023/04/02 08:57:35;;;;;;;2.87;1.83;;;;;;;;;;12716910;19;2005256;-67
2023/04/02 09:02:45;;;;;;;2.08;1.20;;;;;;;;;;12814851;19;20793;-67
2023/04/02 09:07:15;;;;;;;3.88;2.53;;;;;;;;;;12818821;19;20449;-68
2023/04/02 09:17:40;;;;;;;6.78;3.78;;;;;;;;;;12816777;19;20469;-67
2023/04/02 09:22:41;;;;;;;5.07;2.42;;;;;;;;;;12819020;19;20804;-67
2023/04/02 09:27:53;;;;;;;4.32;2.20;;;;;;;;;;12818968;19;20347;-67
2023/04/02 09:33:15;;;;;;;5.47;2.28;;;;;;;;;;12706934;19;2006284;-68
2023/04/02 09:38:06;;;;;;;2.17;1.02;;;;;;;;;;12808934;19;20508;-67
2023/04/02 09:42:37;;;;;;;1.98;1.00;;;;;;;;;;12809592;19;20020;-67
2023/04/02 09:53:50;;;;;;;8.80;2.40;;;;;;;;;;12711908;19;2005007;-67
2023/04/02 09:58:18;;;;;;;1.52;0.90;;;;;;;;;;12821172;19;20304;-66
2023/04/02 10:03:46;;;;;;;2.60;1.73;;;;;;;;;;12821656;19;20437;-66
2023/04/02 10:14:34;;;;;;;3.40;2.05;;;;;;;;;;12822374;19;20465;-67
2023/04/02 10:19:51;;;;;;;3.72;1.58;;;;;;;;;;12828469;19;20334;-67
2023/04/02 10:25:05;;;;;;;3.47;1.98;;;;;;;;;;12819146;19;20430;-67
2023/04/02 10:30:44;;;;;;;1.92;1.40;;;;;;;;;;12819060;19;20396;-67
2023/04/02 10:41:52;;;;;;;1.98;1.50;;;;;;;;;;12818174;19;20444;-67
2023/04/02 10:47:03;;;;;;;2.00;1.65;;;;;;;;;;12818629;19;20434;-67
2023/04/02 10:52:38;;;;;;;1.55;1.27;;;;;;;;;;12819460;19;20584;-67
2023/04/02 10:57:55;;;;;;;2.53;1.58;;;;;;;;;;12818359;19;20364;-67
2023/04/02 11:03:08;;;;;;;2.13;1.38;;;;;;;;;;12819438;19;20307;-67
2023/04/02 11:08:17;;;;;;;1.55;1.25;;;;;;;;;;12816279;19;20486;-67
2023/04/02 11:19:02;;;;;;;4.25;1.70;;;;;;;;;;12819776;19;20431;-68
2023/04/02 11:24:11;;;;;;;2.58;1.35;;;;;;;;;;12824169;19;20909;-67
2023/04/02 11:28:47;;;;;;;1.27;0.90;;;;;;;;;;12825644;19;20745;-67
2023/04/02 11:33:58;;;;;;;2.50;1.40;;;;;;;;;;12823812;19;20346;-67
2023/04/02 11:43:40;;;;;;;3.05;1.55;;;;;;;;;;12822353;19;20307;-67
2023/04/02 11:48:16;;;;;;;1.65;0.90;;;;;;;;;;12824205;19;20042;-67
2023/04/02 11:53:59;;;;;;;2.47;1.77;;;;;;;;;;12823449;19;20306;-67
2023/04/02 11:58:48;;;;;;;3.10;1.45;;;;;;;;;;12822094;19;20485;-67
2023/04/02 12:04:14;;;;;;;2.05;1.60;;;;;;;;;;12812563;19;20533;-67
2023/04/02 12:09:23;;;;;;;1.08;0.88;;;;;;;;;;12801833;19;20309;-68
2023/04/02 14:22:59;;;;;;;12.00;8.60;;;;;;;;;;12828388;19;20390;-67
2023/04/02 14:28:39;;;;;;;4.82;3.10;;;;;;;;;;12819139;19;20361;-67
2023/04/02 14:40:16;;;;;;;5.03;3.50;;;;;;;;;;12817513;19;20336;-67
2023/04/02 14:46:16;;;;;;;5.80;4.10;;;;;;;;;;12817135;19;20447;-67
2023/04/02 14:51:03;;;;;;;6.60;4.80;;;;;;;;;;12818316;19;20303;-67
2023/04/02 14:56:57;;;;;;;4.40;3.22;;;;;;;;;;12820784;19;20536;-67
2023/04/02 15:01:56;;;;;;;13.65;8.32;;;;;;;;;;12816403;19;20418;-67
2023/04/02 15:07:04;;;;;;;10.40;6.97;;;;;;;;;;12825463;19;20021;-67
2023/04/02 15:18:52;;;;;;;4.53;3.50;;;;;;;;;;12720892;19;2005155;-67
2023/04/02 15:24:10;;;;;;;8.82;4.88;;;;;;;;;;12824711;19;20323;-67
2023/04/02 15:36:15;;;;;;;5.88;3.88;;;;;;;;;;12714409;19;2005539;-66
2023/04/02 15:41:37;;;;;;;14.05;8.23;;;;;;;;;;12816224;19;20474;-67
2023/04/02 15:47:00;;;;;;;16.92;7.00;;;;;;;;;;12816550;19;20401;-67
2023/04/02 15:52:36;;;;;;;9.60;4.53;;;;;;;;;;12812973;19;20494;-67
2023/04/02 15:57:41;;;;;;;17.00;7.63;;;;;;;;;;12813860;19;20440;-67
2023/04/02 16:03:01;;;;;;;;;;;;;;;;;;12817106;19;20490;-67
2023/04/02 16:08:09;;;;;;;4.35;2.88;;;;;;;;;;12814067;19;20210;-67
2023/04/02 16:13:38;;;;;;;4.60;3.15;;;;;;;;;;12813811;19;20377;-67
2023/04/02 16:18:34;;;;;;;6.05;4.50;;;;;;;;;;12811472;19;20434;-67
2023/04/02 16:23:39;;;;;;;14.73;7.50;;;;;;;;;;12814080;19;20488;-67
2023/04/02 16:34:17;;;;;;;18.27;7.53;;;;;;;;;;12809129;19;20430;-67
2023/04/02 16:51:34;;;;;;;9.25;4.97;;;;;;;;;;12820790;19;20497;-67
2023/04/02 16:56:59;;;;;;;12.77;6.20;;;;;;;;;;12818469;19;20002;-67
2023/04/02 17:02:58;;;;;;;10.65;6.70;;;;;;;;;;12810620;19;20347;-67
2023/04/02 17:08:41;;;;;;;8.07;4.85;;;;;;;;;;12810365;19;20371;-67
2023/04/02 17:13:53;;;;;;;5.70;3.53;;;;;;;;;;12807733;19;20426;-68
2023/04/02 17:19:44;;;;;;;7.75;4.53;;;;;;;;;;12812207;19;20043;-67
2023/04/02 17:25:06;;;;;;;6.32;2.53;;;;;;;;;;12808463;19;21044;-67
2023/04/02 17:35:49;;;;;;;;;;;;;;;;;;12812458;19;21054;-67
2023/04/02 17:41:00;;;;;;;4.63;3.15;;;;;;;;;;12808753;19;20401;-68
2023/04/02 17:52:58;;;;;;;7.75;5.22;;;;;;;;;;12706089;19;2004903;-67
2023/04/02 17:58:44;;;;;;;9.10;6.30;;;;;;;;;;12808780;19;20340;-67
2023/04/02 18:10:02;;;;;;;15.60;8.52;;;;;;;;;;12807548;19;20327;-67
2023/04/02 18:15:34;;;;;;;8.48;5.20;;;;;;;;;;12814553;19;20324;-67
2023/04/02 18:21:07;;;;;;;5.88;3.92;;;;;;;;;;12821618;19;20430;-67
2023/04/02 18:26:40;;;;;;;18.17;8.40;;;;;;;;;;12715680;19;2004911;-67
2023/04/02 18:32:16;;;;;;;19.52;8.45;;;;;;;;;;12817616;19;20558;-67
2023/04/02 18:37:41;;;;;;;5.47;3.50;;;;;;;;;;12818571;19;20315;-67
2023/04/02 18:54:57;;;;;;;3.45;2.30;;;;;;;;;;12815038;19;20858;-67
2023/04/02 19:00:36;;;;;;;2.80;2.42;;;;;;;;;;12818836;19;20362;-68
2023/04/02 19:11:38;;;;;;;5.35;2.70;;;;;;;;;;12822900;19;20310;-67
2023/04/02 19:16:16;;;;;;;6.72;3.38;;;;;;;;;;12823494;19;20315;-68
2023/04/02 19:22:36;;;;;;;6.97;3.85;;;;;;;;;;12821603;19;20101;-68
2023/04/02 19:27:53;;;;;;;4.53;2.30;;;;;;;;;;12822400;19;20473;-67
2023/04/02 19:32:54;;;;;;;4.93;2.92;;;;;;;;;;12820721;19;20425;-67
2023/04/02 19:38:03;;;;;;;3.65;2.15;;;;;;;;;;12823794;19;20081;-67
2023/04/02 19:43:13;;;;;;;2.92;2.28;;;;;;;;;;12815032;19;20469;-67
2023/04/02 19:48:49;;;;;;;8.88;3.22;;;;;;;;;;12817006;19;20315;-67
2023/04/02 19:54:11;;;;;;;45.17;14.13;;;;;;;;;;12816392;19;20438;-67
2023/04/02 19:58:59;;;;;;;5.43;3.55;;;;;;;;;;12814730;19;20297;-67
2023/04/02 20:03:51;;;;;;;4.07;2.67;;;;;;;;;;12814808;19;20007;-67
2023/04/02 20:09:20;;;;;;;4.93;3.40;;;;;;;;;;12816943;19;20434;-67
2023/04/02 20:14:56;;;;;;;3.88;3.10;;;;;;;;;;12820115;19;20513;-67
2023/04/02 20:20:33;;;;;;;6.53;4.22;;;;;;;;;;12720326;19;2004965;-67
2023/04/02 20:24:53;;;;;;;11.60;5.53;;;;;;;;;;12816560;19;20024;-67
2023/04/02 20:29:53;;;;;;;10.18;5.97;;;;;;;;;;12818868;19;20333;-67
2023/04/02 20:35:16;;;;;;;2.55;1.88;;;;;;;;;;12819224;19;20426;-67
2023/04/02 20:40:50;;;;;;;2.33;1.75;;;;;;;;;;12817843;19;20405;-67
2023/04/02 20:46:35;;;;;;;2.97;1.52;;;;;;;;;;12820623;19;20457;-68
2023/04/02 20:51:36;;;;;;;1.98;1.35;;;;;;;;;;12819398;19;20438;-67
2023/04/02 20:56:37;;;;;;;1.40;1.30;;;;;;;;;;12811337;19;20335;-68
2023/04/02 21:01:34;;;;;;;2.30;1.40;;;;;;;;;;12811534;19;20444;-67
2023/04/02 21:17:15;;;;;;;2.60;1.60;;;;;;;;;;12817770;19;20498;-67
2023/04/02 21:21:53;;;;;;;1.58;1.10;;;;;;;;;;12818057;19;20014;-67
2023/04/02 21:26:56;;;;;;;1.98;1.25;;;;;;;;;;12819328;19;20023;-67
2023/04/02 21:32:00;;;;;;;2.33;1.27;;;;;;;;;;12817523;19;20430;-67
2023/04/02 21:36:47;;;;;;;1.75;1.20;;;;;;;;;;12816895;19;20433;-67
2023/04/02 21:41:53;;;;;;;1.63;1.13;;;;;;;;;;12821658;19;20326;-66
2023/04/02 21:47:06;;;;;;;1.63;1.17;;;;;;;;;;12816925;19;20340;-67
2023/04/02 21:52:34;;;;;;;1.88;1.40;;;;;;;;;;12827826;19;20421;-67
2023/04/02 21:56:52;;;;;;;1.75;1.23;;;;;;;;;;12827675;19;20530;-66
2023/04/02 22:08:04;;;;;;;2.95;1.52;;;;;;;;;;12728192;19;2005932;-67
2023/04/02 22:12:40;;;;;;;3.08;1.77;;;;;;;;;;12828687;19;20509;-68
2023/04/02 22:28:05;;;;;;;;;;;;;;;;;;12818513;19;20006;-67
2023/04/02 22:39:10;;;;;;;6.82;2.85;;;;;;;;;;12716488;19;2004983;-67
2023/04/02 22:49:17;;;;;;;5.53;2.80;;;;;;;;;;12824210;19;20016;-67
2023/04/02 22:59:48;;;;;;;4.45;2.88;;;;;;;;;;12823094;19;20006;-67
2023/04/02 23:04:18;;;;;;;1.80;1.60;;;;;;;;;;12824777;19;20444;-67
2023/04/02 23:08:56;;;;;;;2.60;1.70;;;;;;;;;;12825759;19;20371;-66
2023/04/02 23:14:01;;;;;;;2.00;1.30;;;;;;;;;;12824949;19;20366;-67
2023/04/02 23:18:38;;;;;;;2.95;1.70;;;;;;;;;;12824461;19;20373;-67
2023/04/02 23:23:15;;;;;;;3.05;2.13;;;;;;;;;;12822178;19;20436;-66
2023/04/02 23:34:39;;;;;;;3.50;2.22;;;;;;;;;;12714156;19;2004972;-66
2023/04/02 23:39:31;;;;;;;2.95;1.70;;;;;;;;;;12814439;19;20434;-67
2023/04/02 23:44:36;;;;;;;3.13;1.67;;;;;;;;;;12814666;19;20279;-67
2023/04/02 23:55:03;;;;;;;2.28;1.50;;;;;;;;;;12813073;19;20395;-67
2023/04/02 23:59:45;;;;;;;1.55;0.95;;;;;;;;;;12812667;19;20434;-67
